Time;durP1;ratioP1;P1;durP2;ratioP2;P2;SDS_P1;SDS_P2;PMS_P1;PMS_P2;Temp;Humidity;BMP_temperature;BMP_pressure;BME280_temperature;BME280_humidity;BME280_pressure;Samples;Min_cycle;Max_cycle;Signal;HPM_P1;HPM_P2
2023/04/26 00:00:42;;;;;;;6.80;4.93;;;;;;;9.63;nan;99598.50;4971235;28;20292;-82
2023/04/26 00:03:08;;;;;;;6.70;5.57;;;;;;;9.63;nan;99599.34;4966207;28;20274;-82
2023/04/26 00:05:34;;;;;;;8.60;6.03;;;;;;;9.64;nan;99597.56;4965278;28;20621;-82
2023/04/26 00:08:00;;;;;;;5.95;4.80;;;;;;;9.62;nan;99588.97;4966151;28;20542;-82
2023/04/26 00:10:25;;;;;;;6.40;4.50;;;;;;;9.62;nan;99594.22;4965598;28;20744;-82
2023/04/26 00:12:51;;;;;;;7.17;5.67;;;;;;;9.60;nan;99586.41;4965130;28;20378;-82
2023/04/26 00:15:17;;;;;;;8.07;5.00;;;;;;;9.59;nan;99583.91;4966760;28;20235;-83
2023/04/26 00:17:43;;;;;;;7.70;5.30;;;;;;;9.57;nan;99597.09;4965202;28;20205;-82
2023/04/26 00:20:11;;;;;;;6.70;5.70;;;;;;;9.56;nan;99594.56;4968762;28;20184;-83
2023/04/26 00:22:37;;;;;;;5.50;4.05;;;;;;;9.50;nan;99596.63;4971835;28;20220;-83
2023/04/26 00:25:03;;;;;;;5.73;4.80;;;;;;;9.45;nan;99603.91;4969152;28;20272;-82
2023/04/26 00:27:28;;;;;;;8.77;4.83;;;;;;;9.41;nan;99605.03;4970557;28;20208;-83
2023/04/26 00:29:53;;;;;;;7.67;5.07;;;;;;;9.40;nan;99599.88;4969796;28;20200;-82
2023/04/26 00:32:19;;;;;;;7.60;5.60;;;;;;;9.38;nan;99599.97;4969167;28;20204;-82
2023/04/26 00:34:45;;;;;;;7.05;5.40;;;;;;;9.37;nan;99598.28;4969767;28;20440;-83
2023/04/26 00:37:11;;;;;;;6.33;4.97;;;;;;;9.38;nan;99593.88;4967870;28;20200;-83
2023/04/26 00:39:37;;;;;;;6.70;5.10;;;;;;;9.37;nan;99600.03;4969497;28;20252;-83
2023/04/26 00:42:03;;;;;;;8.00;5.63;;;;;;;9.33;nan;99593.31;4955563;28;20728;-82
2023/04/26 00:44:28;;;;;;;8.17;5.83;;;;;;;9.29;nan;99592.66;4962233;28;20204;-83
2023/04/26 00:46:54;;;;;;;5.80;4.17;;;;;;;9.26;nan;99604.16;4962028;28;20197;-83
2023/04/26 00:49:23;;;;;;;10.95;6.15;;;;;;;9.23;nan;99598.22;4965714;28;20204;-83
2023/04/26 00:51:50;;;;;;;10.10;5.80;;;;;;;9.21;nan;99600.13;4962141;28;20744;-83
2023/04/26 00:54:18;;;;;;;8.35;5.68;;;;;;;9.19;nan;99607.22;4961237;28;20214;-84
2023/04/26 00:56:44;;;;;;;7.70;5.45;;;;;;;9.16;nan;99618.72;4960837;28;20685;-83
2023/04/26 00:59:10;;;;;;;10.20;5.70;;;;;;;9.15;nan;99610.94;4961573;28;20627;-83
2023/04/26 01:01:36;;;;;;;9.43;6.33;;;;;;;9.12;nan;99611.94;4964967;28;20213;-82
2023/04/26 01:04:02;;;;;;;6.78;5.80;;;;;;;9.08;nan;99606.06;4966582;28;20216;-81
2023/04/26 01:06:33;;;;;;;9.43;5.50;;;;;;;9.06;nan;99601.84;4967137;28;20642;-81
2023/04/26 01:09:02;;;;;;;7.50;6.25;;;;;;;9.04;nan;99604.53;4965949;28;21273;-81
2023/04/26 01:11:29;;;;;;;10.05;5.85;;;;;;;9.02;nan;99605.56;4966736;28;20197;-81
2023/04/26 01:13:55;;;;;;;8.47;6.20;;;;;;;9.01;nan;99609.94;4950876;28;20239;-81
2023/04/26 01:16:22;;;;;;;6.75;4.85;;;;;;;8.96;nan;99585.78;4966268;28;20929;-81
2023/04/26 01:18:51;;;;;;;8.80;6.57;;;;;;;8.94;nan;99599.91;4966257;28;20205;-81
2023/04/26 01:21:21;;;;;;;7.55;4.97;;;;;;;8.90;nan;99593.16;4952667;28;20185;-81
2023/04/26 01:23:47;;;;;;;11.43;6.50;;;;;;;8.85;nan;99596.88;4966075;28;20217;-81
2023/04/26 01:26:12;;;;;;;10.27;7.38;;;;;;;8.85;nan;99598.66;4966139;28;20311;-81
2023/04/26 01:28:38;;;;;;;5.07;4.67;;;;;;;8.85;nan;99593.41;4955100;28;20581;-81
2023/04/26 01:31:03;;;;;;;11.10;7.10;;;;;;;8.85;nan;99589.00;4962915;28;20238;-81
2023/04/26 01:33:29;;;;;;;11.50;6.90;;;;;;;8.81;nan;99587.50;4964677;28;20205;-82
2023/04/26 01:35:55;;;;;;;11.73;9.95;;;;;;;8.82;nan;99583.94;4962881;28;20479;-81
2023/04/26 01:38:21;;;;;;;9.57;8.60;;;;;;;8.83;nan;99584.78;4949782;28;20207;-81
2023/04/26 01:40:46;;;;;;;10.20;6.50;;;;;;;8.81;nan;99570.97;4956389;28;20200;-81
2023/04/26 01:43:12;;;;;;;12.77;7.53;;;;;;;8.77;nan;99572.88;4947470;28;20223;-81
2023/04/26 01:45:37;;;;;;;11.73;7.10;;;;;;;8.75;nan;99566.06;4964756;28;20207;-81
2023/04/26 01:48:21;;;;;;;9.80;6.57;;;;;;;8.72;nan;99564.47;4963269;28;20207;-81
2023/04/26 01:50:47;;;;;;;10.13;7.10;;;;;;;8.70;nan;99573.34;4957219;28;20204;-81
2023/04/26 01:53:12;;;;;;;10.53;7.07;;;;;;;8.66;nan;99569.19;4964472;28;20707;-81
2023/04/26 01:55:37;;;;;;;9.87;6.40;;;;;;;8.61;nan;99575.56;4963077;28;20211;-81
2023/04/26 01:58:03;;;;;;;6.30;4.83;;;;;;;8.61;nan;99566.84;4945139;28;20267;-81
2023/04/26 02:00:29;;;;;;;6.33;4.30;;;;;;;8.59;nan;99569.56;4965440;28;20688;-80
2023/04/26 02:02:55;;;;;;;8.93;5.20;;;;;;;8.54;nan;99571.59;4965279;28;20270;-81
2023/04/26 02:05:23;;;;;;;7.95;5.20;;;;;;;8.53;nan;99582.13;4964770;28;20470;-81
2023/04/26 02:07:48;;;;;;;9.00;6.30;;;;;;;8.55;nan;99580.28;4963916;28;20342;-81
2023/04/26 02:10:14;;;;;;;7.70;5.43;;;;;;;8.58;nan;99572.25;4963219;28;20287;-81
2023/04/26 02:12:40;;;;;;;6.97;5.10;;;;;;;8.59;nan;99572.19;4964489;28;20580;-81
2023/04/26 02:15:07;;;;;;;8.60;5.70;;;;;;;8.60;nan;99584.31;4962110;28;20762;-81
2023/04/26 02:17:33;;;;;;;7.80;5.30;;;;;;;8.60;nan;99579.09;4947512;28;20232;-81
2023/04/26 02:19:58;;;;;;;9.47;6.70;;;;;;;8.62;nan;99579.84;4948658;28;20239;-81
2023/04/26 02:22:24;;;;;;;6.17;5.30;;;;;;;8.62;nan;99577.22;4949069;28;20208;-81
2023/04/26 02:24:51;;;;;;;9.67;4.70;;;;;;;8.60;nan;99571.22;4964566;28;20227;-81
2023/04/26 02:27:16;;;;;;;5.45;4.05;;;;;;;8.60;nan;99579.09;4955196;28;20635;-81
2023/04/26 02:29:41;;;;;;;14.13;5.10;;;;;;;8.55;nan;99581.13;4963234;28;20197;-81
2023/04/26 02:32:07;;;;;;;9.90;5.47;;;;;;;8.51;nan;99577.00;4963354;28;20824;-81
2023/04/26 02:34:33;;;;;;;7.33;5.80;;;;;;;8.49;nan;99578.84;4956533;28;20466;-81
2023/04/26 02:36:58;;;;;;;6.20;4.73;;;;;;;8.49;nan;99584.09;4963340;28;20257;-81
2023/04/26 02:39:24;;;;;;;5.93;4.30;;;;;;;8.50;nan;99580.53;4940427;28;20602;-81
2023/04/26 02:41:50;;;;;;;8.55;5.10;;;;;;;8.47;nan;99577.25;4963067;28;20226;-81
2023/04/26 02:44:15;;;;;;;6.57;4.50;;;;;;;8.44;nan;99583.50;4964032;28;20192;-81
2023/04/26 02:46:41;;;;;;;6.07;4.30;;;;;;;8.40;nan;99584.59;4955696;28;20296;-81
2023/04/26 02:49:07;;;;;;;5.33;4.37;;;;;;;8.34;nan;99583.09;4963511;28;20280;-81
2023/04/26 02:51:32;;;;;;;5.57;4.40;;;;;;;8.31;nan;99582.44;4963668;28;20672;-81
2023/04/26 02:53:58;;;;;;;6.50;4.73;;;;;;;8.32;nan;99587.59;4963927;28;20243;-81
2023/04/26 02:56:24;;;;;;;6.17;4.17;;;;;;;8.33;nan;99578.81;4963044;28;20219;-81
2023/04/26 02:58:50;;;;;;;7.37;4.87;;;;;;;8.32;nan;99582.38;4956245;28;20456;-81
2023/04/26 03:01:16;;;;;;;5.90;4.20;;;;;;;8.31;nan;99578.03;4954248;28;20204;-81
2023/04/26 03:03:42;;;;;;;6.95;4.93;;;;;;;8.33;nan;99576.19;4956170;28;20224;-81
2023/04/26 03:06:07;;;;;;;5.60;4.40;;;;;;;8.34;nan;99583.09;4943666;28;20206;-81
2023/04/26 03:08:34;;;;;;;5.20;4.17;;;;;;;8.29;nan;99576.44;4963584;28;20303;-81
2023/04/26 03:11:00;;;;;;;7.18;5.18;;;;;;;8.24;nan;99581.94;4962543;28;20211;-81
2023/04/26 03:13:26;;;;;;;10.20;5.38;;;;;;;8.24;nan;99581.94;4947329;28;20228;-81
2023/04/26 03:15:54;;;;;;;6.95;4.85;;;;;;;8.26;nan;99584.47;4961122;28;20211;-81
2023/04/26 03:18:20;;;;;;;7.78;4.13;;;;;;;8.20;nan;99572.56;4946118;28;20206;-81
2023/04/26 03:20:47;;;;;;;4.00;3.40;;;;;;;8.13;nan;99579.91;4948050;28;20201;-81
2023/04/26 03:23:13;;;;;;;6.05;4.30;;;;;;;8.09;nan;99577.53;4962823;28;20240;-81
2023/04/26 03:25:38;;;;;;;7.40;4.00;;;;;;;8.07;nan;99572.38;4959701;28;20308;-81
2023/04/26 03:28:04;;;;;;;10.27;6.10;;;;;;;8.05;nan;99566.41;4951682;28;20439;-81
2023/04/26 03:30:30;;;;;;;10.88;5.43;;;;;;;7.98;nan;99572.88;4952435;28;20211;-81
2023/04/26 03:32:56;;;;;;;6.60;5.00;;;;;;;7.92;nan;99573.22;4950844;28;20204;-81
2023/04/26 03:35:21;;;;;;;6.97;4.30;;;;;;;7.90;nan;99561.97;4961672;28;20666;-81
2023/04/26 03:37:47;;;;;;;10.27;4.37;;;;;;;7.92;nan;99554.91;4945397;28;20458;-80
2023/04/26 03:40:13;;;;;;;13.23;6.25;;;;;;;7.91;nan;99553.19;4941319;28;20300;-81
2023/04/26 03:42:39;;;;;;;8.77;5.87;;;;;;;7.91;nan;99553.19;4963492;28;20212;-81
2023/04/26 03:45:05;;;;;;;10.03;6.70;;;;;;;7.92;nan;99550.50;4940487;28;20196;-81
2023/04/26 03:47:30;;;;;;;6.90;5.47;;;;;;;7.98;nan;99550.16;4962364;28;20549;-81
2023/04/26 03:49:56;;;;;;;13.43;5.93;;;;;;;8.03;nan;99554.31;4962686;28;20461;-81
2023/04/26 03:52:22;;;;;;;20.03;6.47;;;;;;;8.05;nan;99555.09;4952385;28;20231;-81
2023/04/26 03:54:47;;;;;;;24.07;8.20;;;;;;;8.06;nan;99555.00;4953501;28;20436;-81
2023/04/26 03:57:13;;;;;;;23.13;7.50;;;;;;;8.04;nan;99559.47;4960923;28;20199;-81
2023/04/26 03:59:39;;;;;;;8.27;5.20;;;;;;;8.01;nan;99557.00;4948326;28;20196;-81
2023/04/26 04:02:05;;;;;;;19.53;7.70;;;;;;;8.01;nan;99558.78;4949336;28;20472;-81
2023/04/26 04:04:30;;;;;;;37.20;9.27;;;;;;;8.05;nan;99565.56;4959217;28;20188;-81
2023/04/26 04:06:56;;;;;;;45.20;9.80;;;;;;;8.07;nan;99554.06;4943121;28;20456;-81
2023/04/26 04:09:21;;;;;;;81.77;12.50;;;;;;;8.09;nan;99567.91;4964181;28;20200;-81
2023/04/26 04:11:47;;;;;;;91.53;13.70;;;;;;;8.08;nan;99555.75;4953914;28;20232;-81
2023/04/26 04:14:12;;;;;;;44.60;11.67;;;;;;;8.03;nan;99562.16;4947617;28;20323;-81
2023/04/26 04:16:37;;;;;;;55.93;8.80;;;;;;;7.97;nan;99556.34;4948178;28;20200;-82
2023/04/26 04:19:03;;;;;;;69.23;9.67;;;;;;;7.94;nan;99563.53;4948761;28;20459;-81
2023/04/26 04:21:29;;;;;;;34.40;8.18;;;;;;;7.92;nan;99567.97;4960528;28;20630;-81
2023/04/26 04:23:55;;;;;;;9.93;7.35;;;;;;;7.94;nan;99566.13;4947824;28;20208;-81
2023/04/26 04:26:21;;;;;;;9.90;7.27;;;;;;;7.98;nan;99567.66;4965622;28;20193;-81
2023/04/26 04:28:47;;;;;;;20.63;7.70;;;;;;;8.03;nan;99570.84;4962439;28;20200;-81
2023/04/26 04:31:13;;;;;;;22.80;8.95;;;;;;;8.06;nan;99565.47;4954376;28;20200;-81
2023/04/26 04:33:39;;;;;;;20.03;8.23;;;;;;;8.09;nan;99578.38;4966303;28;20199;-80
2023/04/26 04:36:06;;;;;;;15.15;10.10;;;;;;;8.15;nan;99574.56;4946770;28;20508;-82
2023/04/26 04:38:31;;;;;;;13.75;8.32;;;;;;;8.23;nan;99580.22;4964614;28;20205;-81
2023/04/26 04:40:57;;;;;;;16.37;8.50;;;;;;;8.30;nan;99572.91;4950105;28;20211;-81
2023/04/26 04:43:23;;;;;;;15.05;8.32;;;;;;;8.37;nan;99577.72;4965286;28;20266;-81
2023/04/26 04:45:49;;;;;;;23.37;8.47;;;;;;;8.37;nan;99579.47;4948382;28;20356;-81
2023/04/26 04:48:15;;;;;;;23.27;8.70;;;;;;;8.27;nan;99570.47;4966199;28;20200;-81
2023/04/26 04:50:41;;;;;;;16.02;6.93;;;;;;;8.19;nan;99574.34;4965809;28;20783;-81
2023/04/26 04:53:08;;;;;;;16.97;8.00;;;;;;;8.13;nan;99585.13;4947290;28;20220;-80
2023/04/26 04:55:35;;;;;;;12.70;7.50;;;;;;;8.13;nan;99586.91;4962051;28;20440;-81
2023/04/26 04:58:02;;;;;;;11.63;7.60;;;;;;;8.12;nan;99591.28;4953734;28;20277;-80
2023/04/26 05:00:30;;;;;;;10.65;6.90;;;;;;;8.09;nan;99586.22;4947120;28;20228;-82
2023/04/26 05:03:03;;;;;;;10.13;5.63;;;;;;;8.06;nan;99586.38;4949331;28;20226;-80
2023/04/26 05:05:30;;;;;;;12.07;6.43;;;;;;;8.06;nan;99593.41;4949040;28;20212;-81
2023/04/26 05:07:55;;;;;;;11.48;6.55;;;;;;;8.09;nan;99598.47;4963463;28;20203;-81
2023/04/26 05:10:21;;;;;;;7.23;5.30;;;;;;;8.22;nan;99598.66;4947929;28;20268;-81
2023/04/26 05:12:46;;;;;;;12.53;8.00;;;;;;;8.45;nan;99594.78;4966175;28;20212;-80
2023/04/26 05:15:12;;;;;;;10.57;7.53;;;;;;;8.66;nan;99585.75;4946639;28;20193;-80
2023/04/26 05:17:38;;;;;;;11.05;6.95;;;;;;;8.84;nan;99587.34;4952074;28;20884;-80
2023/04/26 05:20:19;;;;;;;11.30;8.38;;;;;;;8.98;nan;99591.78;4961095;28;20211;-80
2023/04/26 05:22:45;;;;;;;13.57;7.20;;;;;;;9.09;nan;99591.16;4947509;28;20224;-81
2023/04/26 05:25:12;;;;;;;10.27;6.70;;;;;;;9.18;nan;99600.25;4950204;28;20200;-80
2023/04/26 05:27:38;;;;;;;10.98;7.45;;;;;;;9.24;nan;99603.41;4963603;28;20192;-80
2023/04/26 05:30:28;;;;;;;13.68;7.22;;;;;;;9.24;nan;99602.56;4959543;28;20466;-81
2023/04/26 05:33:11;;;;;;;11.13;7.13;;;;;;;9.26;nan;99608.53;4946532;28;20207;-80
2023/04/26 05:35:46;;;;;;;11.88;7.30;;;;;;;9.27;nan;99610.25;4949459;28;20200;-81
2023/04/26 05:38:11;;;;;;;10.10;7.57;;;;;;;9.25;nan;99610.31;4968318;28;20207;-80
2023/04/26 05:40:36;;;;;;;10.20;6.57;;;;;;;9.23;nan;99622.66;4953838;28;20208;-80
2023/04/26 05:43:02;;;;;;;5.67;4.73;;;;;;;9.19;nan;99629.03;4948705;28;20920;-80
2023/04/26 05:45:29;;;;;;;5.90;4.88;;;;;;;9.15;nan;99635.34;4955873;28;20224;-80
2023/04/26 05:47:54;;;;;;;5.50;5.00;;;;;;;9.08;nan;99640.13;4966858;28;20192;-81
2023/04/26 05:50:20;;;;;;;5.40;4.00;;;;;;;8.99;nan;99643.28;4942872;28;20549;-80
2023/04/26 05:52:46;;;;;;;6.10;3.30;;;;;;;8.92;nan;99651.56;4945079;28;20231;-80
2023/04/26 05:55:12;;;;;;;4.60;3.30;;;;;;;8.84;nan;99646.75;4943971;28;20443;-80
2023/04/26 05:57:38;;;;;;;4.07;3.50;;;;;;;8.77;nan;99663.72;4945244;28;20444;-80
2023/04/26 06:00:08;;;;;;;5.10;3.25;;;;;;;8.74;nan;99662.09;4956864;28;20526;-80
2023/04/26 06:02:39;;;;;;;4.28;3.58;;;;;;;8.69;nan;99665.91;4962641;28;20401;-80
2023/04/26 06:05:07;;;;;;;7.88;3.75;;;;;;;8.62;nan;99661.03;4955625;28;20212;-80
2023/04/26 06:07:34;;;;;;;5.07;3.78;;;;;;;8.63;nan;99665.31;4925239;28;20296;-81
2023/04/26 06:10:01;;;;;;;5.85;4.43;;;;;;;8.66;nan;99668.69;4947433;28;20204;-80
2023/04/26 06:12:27;;;;;;;8.27;4.88;;;;;;;8.68;nan;99674.72;4955897;28;20207;-80
2023/04/26 06:14:56;;;;;;;5.87;4.67;;;;;;;8.71;nan;99669.31;4957848;28;20193;-80
2023/04/26 06:17:25;;;;;;;7.93;5.78;;;;;;;8.74;nan;99661.28;4960319;28;20447;-81
2023/04/26 06:19:50;;;;;;;7.57;6.00;;;;;;;8.77;nan;99655.84;4956297;28;20655;-80
2023/04/26 06:22:15;;;;;;;5.60;3.97;;;;;;;8.78;nan;99657.56;4963539;28;20220;-80
2023/04/26 06:24:42;;;;;;;7.85;5.70;;;;;;;8.75;nan;99662.94;4958849;28;20197;-80
2023/04/26 06:27:07;;;;;;;7.10;4.73;;;;;;;8.72;nan;99656.13;4964638;28;20600;-80
2023/04/26 06:29:34;;;;;;;6.88;5.50;;;;;;;8.72;nan;99661.38;4946471;28;20264;-80
2023/04/26 06:32:00;;;;;;;7.43;5.10;;;;;;;8.75;nan;99663.81;4957977;28;20189;-80
2023/04/26 06:34:26;;;;;;;7.77;5.17;;;;;;;8.81;nan;99655.63;4944246;28;20471;-80
2023/04/26 06:36:52;;;;;;;7.88;5.72;;;;;;;8.89;nan;99644.72;4946130;28;20200;-79
2023/04/26 06:39:18;;;;;;;10.00;5.85;;;;;;;8.98;nan;99636.31;4947419;28;20232;-79
2023/04/26 06:41:43;;;;;;;10.40;6.80;;;;;;;9.08;nan;99645.34;4945271;28;20253;-79
2023/04/26 06:44:10;;;;;;;8.48;6.40;;;;;;;9.19;nan;99649.16;4944331;28;20460;-78
2023/04/26 06:46:40;;;;;;;9.95;6.07;;;;;;;9.29;nan;99645.06;4957090;28;20216;-80
2023/04/26 06:49:06;;;;;;;7.27;5.77;;;;;;;9.38;nan;99634.03;4962522;28;20569;-80
2023/04/26 06:51:32;;;;;;;10.97;7.50;;;;;;;9.47;nan;99636.09;4964129;28;20428;-80
2023/04/26 06:53:59;;;;;;;11.27;7.10;;;;;;;9.55;nan;99640.06;4964531;28;20597;-80
2023/04/26 06:56:25;;;;;;;13.82;7.60;;;;;;;9.64;nan;99631.66;4964502;28;20196;-80
2023/04/26 06:59:02;;;;;;;9.83;7.87;;;;;;;9.71;nan;99636.44;4963784;28;20319;-80
2023/04/26 07:01:28;;;;;;;12.60;8.10;;;;;;;9.79;nan;99635.16;4962347;28;20239;-80
2023/04/26 07:03:55;;;;;;;12.20;6.97;;;;;;;9.83;nan;99640.13;4969090;28;20640;-79
2023/04/26 07:06:21;;;;;;;9.00;6.65;;;;;;;9.85;nan;99632.16;4966184;28;20208;-80
2023/04/26 07:08:47;;;;;;;10.95;6.93;;;;;;;9.81;nan;99635.91;4964953;28;20205;-80
2023/04/26 07:11:12;;;;;;;9.77;7.97;;;;;;;9.74;nan;99632.78;4966631;28;20260;-80
2023/04/26 07:13:38;;;;;;;8.90;6.73;;;;;;;9.73;nan;99633.75;4965629;28;20367;-80
2023/04/26 07:16:03;;;;;;;9.73;7.20;;;;;;;9.74;nan;99627.56;4963308;28;20199;-80
2023/04/26 07:18:29;;;;;;;11.77;6.83;;;;;;;9.68;nan;99633.16;4964793;28;20673;-80
2023/04/26 07:20:54;;;;;;;8.57;6.93;;;;;;;9.66;nan;99643.75;4965153;28;20204;-79
2023/04/26 07:23:20;;;;;;;14.23;7.57;;;;;;;9.72;nan;99639.91;4964624;28;20208;-80
2023/04/26 07:25:45;;;;;;;12.83;8.10;;;;;;;9.79;nan;99640.41;4962681;28;20410;-79
2023/04/26 07:28:10;;;;;;;13.50;7.63;;;;;;;9.86;nan;99633.88;4962629;28;20231;-80
2023/04/26 07:30:36;;;;;;;13.93;7.60;;;;;;;9.94;nan;99636.88;4962176;28;20200;-79
2023/04/26 07:33:01;;;;;;;11.67;6.73;;;;;;;10.06;nan;99627.38;4962821;28;20200;-80
2023/04/26 07:35:27;;;;;;;9.47;7.10;;;;;;;10.17;nan;99620.53;4962229;28;20949;-79
2023/04/26 07:37:52;;;;;;;9.47;6.43;;;;;;;10.34;nan;99626.53;4965669;28;20203;-79
2023/04/26 07:40:18;;;;;;;9.90;8.57;;;;;;;10.52;nan;99632.44;4965042;28;20207;-80
2023/04/26 07:42:44;;;;;;;10.18;6.70;;;;;;;10.70;nan;99626.03;4963502;28;20223;-80
2023/04/26 07:45:10;;;;;;;9.33;6.97;;;;;;;10.80;nan;99621.88;4963691;28;20200;-80
2023/04/26 07:47:36;;;;;;;11.40;7.72;;;;;;;10.91;nan;99622.94;4962314;28;20231;-80
2023/04/26 07:50:01;;;;;;;11.10;6.82;;;;;;;11.04;nan;99623.84;4965478;28;20201;-80
2023/04/26 07:52:27;;;;;;;8.57;6.73;;;;;;;11.17;nan;99619.47;4962581;28;20212;-81
2023/04/26 07:54:52;;;;;;;11.60;7.60;;;;;;;11.34;nan;99621.00;4963999;28;20206;-81
2023/04/26 07:57:18;;;;;;;11.30;7.80;;;;;;;11.48;nan;99623.53;4963092;28;20207;-81
2023/04/26 07:59:43;;;;;;;10.97;7.40;;;;;;;11.54;nan;99627.53;4964924;28;20200;-79
2023/04/26 08:02:09;;;;;;;10.30;6.83;;;;;;;11.54;nan;99622.28;4961937;28;20307;-80
2023/04/26 08:04:35;;;;;;;14.13;7.60;;;;;;;11.51;nan;99633.00;4959039;28;20950;-79
2023/04/26 08:07:01;;;;;;;10.40;7.07;;;;;;;11.47;nan;99631.53;4959261;28;20196;-81
2023/04/26 08:09:27;;;;;;;11.00;7.17;;;;;;;11.43;nan;99630.06;4957307;28;20700;-81
2023/04/26 08:11:53;;;;;;;9.50;6.90;;;;;;;11.38;nan;99626.88;4957688;28;20193;-81
2023/04/26 08:14:18;;;;;;;8.63;5.60;;;;;;;11.36;nan;99626.13;4940006;28;20192;-79
2023/04/26 08:16:44;;;;;;;7.37;5.70;;;;;;;11.37;nan;99630.44;4958337;28;20311;-79
2023/04/26 08:19:10;;;;;;;7.80;5.80;;;;;;;11.48;nan;99628.78;4958692;28;20203;-80
2023/04/26 08:21:35;;;;;;;9.20;6.07;;;;;;;11.57;nan;99629.97;4958406;28;20698;-81
2023/04/26 08:24:00;;;;;;;11.03;7.47;;;;;;;11.71;nan;99624.59;4957158;28;20257;-81
2023/04/26 08:26:26;;;;;;;8.87;6.10;;;;;;;11.99;nan;99621.88;4957391;28;20709;-81
2023/04/26 08:28:51;;;;;;;8.53;6.17;;;;;;;12.20;nan;99617.75;4958848;28;20201;-81
2023/04/26 08:31:16;;;;;;;6.33;5.37;;;;;;;12.21;nan;99616.00;4957250;28;20205;-80
2023/04/26 08:33:42;;;;;;;10.70;7.63;;;;;;;12.31;nan;99611.75;4957760;28;20316;-81
2023/04/26 08:36:07;;;;;;;7.43;6.17;;;;;;;12.63;nan;99612.06;4956590;28;20227;-80
2023/04/26 08:38:33;;;;;;;8.37;5.60;;;;;;;12.99;nan;99621.75;4956706;28;20234;-79
2023/04/26 08:41:02;;;;;;;9.33;7.40;;;;;;;13.23;nan;99610.31;4959668;28;20311;-82
2023/04/26 08:43:34;;;;;;;7.60;6.53;;;;;;;13.55;nan;99607.09;4959083;28;20850;-80
2023/04/26 08:46:00;;;;;;;14.43;7.75;;;;;;;13.76;nan;99605.47;4959569;28;20551;-80
2023/04/26 08:48:29;;;;;;;9.40;6.23;;;;;;;13.99;nan;99610.75;4959147;28;20985;-81
2023/04/26 08:50:54;;;;;;;9.98;7.53;;;;;;;14.26;nan;99603.34;4958128;28;21000;-80
2023/04/26 08:53:20;;;;;;;7.10;6.00;;;;;;;14.48;nan;99604.28;4958328;28;20412;-81
2023/04/26 08:55:49;;;;;;;8.37;7.10;;;;;;;14.50;nan;99605.84;4958230;28;20674;-81
2023/04/26 08:58:17;;;;;;;7.97;7.18;;;;;;;14.41;nan;99608.34;4959229;28;20470;-79
2023/04/26 09:00:44;;;;;;;7.90;5.38;;;;;;;14.42;nan;99604.75;4957748;28;20478;-81
2023/04/26 09:03:10;;;;;;;7.70;6.70;;;;;;;14.41;nan;99603.06;4961032;28;20704;-82
2023/04/26 09:05:37;;;;;;;12.70;6.40;;;;;;;14.41;nan;99598.63;4961787;28;20191;-80
2023/04/26 09:08:05;;;;;;;6.20;5.28;;;;;;;14.45;nan;99593.94;4961225;28;20381;-80
2023/04/26 09:10:31;;;;;;;5.53;5.03;;;;;;;14.47;nan;99598.13;4963257;28;20770;-81
2023/04/26 09:12:57;;;;;;;7.63;6.17;;;;;;;14.43;nan;99603.78;4963254;28;20232;-80
2023/04/26 09:15:25;;;;;;;9.27;6.13;;;;;;;14.33;nan;99596.59;4964427;28;20227;-80
2023/04/26 09:17:51;;;;;;;11.95;7.35;;;;;;;14.19;nan;99594.19;4962924;28;20447;-81
2023/04/26 09:20:24;;;;;;;7.72;5.88;;;;;;;14.02;nan;99603.47;4962560;28;20692;-82
2023/04/26 09:22:52;;;;;;;7.20;5.28;;;;;;;13.98;nan;99595.88;4960973;28;20252;-82
2023/04/26 09:25:27;;;;;;;10.02;6.47;;;;;;;14.06;nan;99588.19;4962227;28;20215;-81
2023/04/26 09:27:53;;;;;;;10.57;5.30;;;;;;;14.09;nan;99585.31;4963705;28;20200;-79
2023/04/26 09:30:19;;;;;;;6.37;5.77;;;;;;;14.14;nan;99580.50;4964028;28;20549;-79
2023/04/26 09:32:57;;;;;;;8.55;6.32;;;;;;;14.22;nan;99578.09;4961448;28;20669;-81
2023/04/26 09:35:28;;;;;;;9.20;5.60;;;;;;;14.31;nan;99585.31;4962514;28;20206;-81
2023/04/26 09:38:11;;;;;;;8.68;5.82;;;;;;;14.41;nan;99581.94;4961176;28;20212;-81
2023/04/26 09:40:44;;;;;;;7.43;5.63;;;;;;;14.47;nan;99576.97;4962384;28;20243;-80
2023/04/26 09:43:18;;;;;;;7.00;6.30;;;;;;;14.51;nan;99574.94;4962440;28;20213;-79
2023/04/26 09:45:49;;;;;;;6.85;6.10;;;;;;;14.64;nan;99583.59;4962634;28;20491;-80
2023/04/26 09:48:16;;;;;;;10.98;6.18;;;;;;;14.82;nan;99581.25;4960985;28;20201;-79
2023/04/26 09:50:47;;;;;;;6.35;5.75;;;;;;;15.05;nan;99577.56;4961557;28;20262;-81
2023/04/26 09:53:29;;;;;;;6.40;4.30;;;;;;;15.34;nan;99571.66;4957764;28;20752;-81
2023/04/26 09:55:56;;;;;;;5.65;5.05;;;;;;;15.43;nan;99575.34;4962416;28;20228;-80
2023/04/26 09:58:22;;;;;;;7.32;5.40;;;;;;;15.50;nan;99565.91;4962134;28;20770;-81
2023/04/26 10:00:51;;;;;;;5.97;4.80;;;;;;;15.68;nan;99567.00;4962143;28;20196;-80
2023/04/26 10:03:18;;;;;;;8.07;4.55;;;;;;;15.79;nan;99571.38;4959410;28;20216;-80
2023/04/26 10:05:44;;;;;;;6.18;4.60;;;;;;;15.88;nan;99567.94;4959980;28;20203;-82
2023/04/26 10:08:10;;;;;;;6.95;4.13;;;;;;;16.01;nan;99564.22;4960072;28;20205;-81
2023/04/26 10:10:36;;;;;;;5.73;4.77;;;;;;;16.03;nan;99560.47;4957293;28;20200;-81
2023/04/26 10:13:02;;;;;;;6.70;4.70;;;;;;;16.01;nan;99557.09;4958434;28;20266;-81
2023/04/26 10:15:28;;;;;;;5.53;3.88;;;;;;;16.01;nan;99559.75;4957020;28;20208;-80
2023/04/26 10:17:53;;;;;;;8.10;4.40;;;;;;;16.05;nan;99561.19;4958287;28;20204;-80
2023/04/26 10:20:20;;;;;;;5.60;4.13;;;;;;;16.06;nan;99560.19;4958586;28;20362;-82
2023/04/26 10:22:51;;;;;;;6.38;4.90;;;;;;;16.14;nan;99559.53;4959108;28;20681;-82
2023/04/26 10:25:17;;;;;;;6.45;5.10;;;;;;;16.23;nan;99556.09;4957667;28;20196;-81
2023/04/26 10:27:42;;;;;;;5.60;5.10;;;;;;;16.24;nan;99554.28;4959897;28;20203;-81
2023/04/26 10:30:10;;;;;;;7.50;5.20;;;;;;;16.35;nan;99562.13;4960333;28;20678;-82
2023/04/26 10:33:05;;;;;;;4.47;3.33;;;;;;;16.33;nan;99556.09;4957559;28;20264;-82
2023/04/26 10:35:31;;;;;;;6.55;4.00;;;;;;;16.22;nan;99551.75;4957169;28;20250;-82
2023/04/26 10:37:59;;;;;;;7.38;4.70;;;;;;;15.98;nan;99551.25;4956598;28;20617;-81
2023/04/26 10:40:28;;;;;;;6.47;5.22;;;;;;;15.63;nan;99547.97;4957747;28;20310;-81
2023/04/26 10:43:08;;;;;;;5.50;4.35;;;;;;;15.45;nan;99558.34;4957376;28;20212;-80
2023/04/26 10:45:35;;;;;;;5.10;4.60;;;;;;;15.45;nan;99550.41;4957439;28;20204;-81
2023/04/26 10:48:18;;;;;;;9.02;5.15;;;;;;;15.54;nan;99556.72;4959060;28;20409;-82
2023/04/26 10:51:00;;;;;;;4.07;3.53;;;;;;;15.62;nan;99554.25;4960377;28;20302;-82
2023/04/26 10:53:52;;;;;;;12.48;6.55;;;;;;;15.74;nan;99543.63;4959433;28;20247;-81
2023/04/26 10:56:26;;;;;;;5.22;3.25;;;;;;;15.79;nan;99531.66;4959946;28;20266;-80
2023/04/26 10:59:08;;;;;;;4.55;4.07;;;;;;;15.94;nan;99534.78;4960141;28;20751;-83
2023/04/26 11:01:34;;;;;;;4.90;3.70;;;;;;;16.02;nan;99537.63;4959276;28;20192;-81
2023/04/26 11:04:00;;;;;;;4.60;3.67;;;;;;;15.98;nan;99538.84;4955149;28;20224;-82
2023/04/26 11:06:26;;;;;;;5.60;3.70;;;;;;;15.92;nan;99534.09;4956953;28;20208;-81
2023/04/26 11:08:52;;;;;;;5.05;4.20;;;;;;;15.93;nan;99533.09;4957178;28;20514;-83
2023/04/26 11:11:21;;;;;;;3.67;3.38;;;;;;;16.03;nan;99528.69;4957087;28;20214;-81
2023/04/26 11:13:46;;;;;;;7.10;3.05;;;;;;;16.22;nan;99521.75;4958334;28;20752;-83
2023/04/26 11:16:16;;;;;;;4.67;2.97;;;;;;;16.35;nan;99525.00;4958121;28;20212;-81
2023/04/26 11:18:45;;;;;;;4.38;2.70;;;;;;;16.53;nan;99507.47;4962638;28;20419;-83
2023/04/26 11:21:16;;;;;;;3.40;2.90;;;;;;;16.60;nan;99502.44;4963523;28;20591;-81
2023/04/26 11:23:42;;;;;;;3.00;2.70;;;;;;;16.59;nan;99506.91;4964999;28;20235;-82
2023/04/26 11:26:08;;;;;;;3.67;2.77;;;;;;;16.68;nan;99504.38;4963480;28;20200;-82
2023/04/26 11:28:36;;;;;;;4.43;3.08;;;;;;;16.79;nan;99505.09;4965032;28;20231;-81
2023/04/26 11:31:03;;;;;;;3.45;3.15;;;;;;;16.80;nan;99501.50;4962147;28;20288;-82
2023/04/26 11:33:28;;;;;;;3.80;2.90;;;;;;;16.72;nan;99495.19;4959645;28;20224;-80
2023/04/26 11:35:55;;;;;;;3.60;2.53;;;;;;;16.58;nan;99494.63;4962252;28;20243;-81
2023/04/26 11:38:24;;;;;;;3.90;2.80;;;;;;;16.63;nan;99491.53;4959389;28;20200;-83
2023/04/26 11:40:54;;;;;;;3.63;2.20;;;;;;;16.62;nan;99497.00;4959644;28;20206;-83
2023/04/26 11:43:20;;;;;;;3.35;2.80;;;;;;;16.71;nan;99493.50;4960407;28;20357;-80
2023/04/26 11:45:45;;;;;;;2.70;2.40;;;;;;;16.81;nan;99499.69;4960424;28;20200;-83
2023/04/26 11:48:11;;;;;;;4.60;2.93;;;;;;;16.89;nan;99501.63;4959349;28;20373;-82
2023/04/26 11:50:38;;;;;;;3.40;3.08;;;;;;;16.97;nan;99502.59;4961448;28;20197;-83
2023/04/26 11:53:05;;;;;;;3.92;2.95;;;;;;;17.02;nan;99495.06;4958911;28;20227;-82